createdAt,value
2022-08-07T00:01:43.952Z,56.31
2022-08-07T00:04:09.294Z,57.42
2022-08-07T00:06:36.201Z,57.63
2022-08-07T00:09:16.336Z,59.08
2022-08-07T00:11:54.453Z,57.53
2022-08-07T00:14:30.097Z,56.61
2022-08-07T00:17:02.718Z,58.33
2022-08-07T00:20:01.604Z,58.50
2022-08-07T00:22:24.782Z,58.29
2022-08-07T00:25:11.181Z,57.86
2022-08-07T00:27:53.323Z,57.54
2022-08-07T00:30:27.526Z,56.74
2022-08-07T00:33:00.436Z,57.50
2022-08-07T00:35:30.704Z,57.14
2022-08-07T00:37:59.149Z,56.77
2022-08-07T00:40:36.606Z,57.27
2022-08-07T00:43:59.279Z,56.71
2022-08-07T00:46:02.000Z,57.19
2022-08-07T00:48:32.190Z,56.92
2022-08-07T00:51:01.239Z,57.59
2022-08-07T00:53:39.316Z,57.48
2022-08-07T00:56:15.829Z,57.37
2022-08-07T00:58:46.587Z,57.55
2022-08-07T01:01:16.117Z,57.75
2022-08-07T01:03:57.348Z,57.62
2022-08-07T01:06:29.114Z,57.49
2022-08-07T01:08:58.670Z,57.60
2022-08-07T01:12:10.185Z,57.45
2022-08-07T01:14:28.333Z,57.86
2022-08-07T01:16:57.103Z,57.66
2022-08-07T01:19:27.428Z,58.88
2022-08-07T01:22:00.023Z,61.26
2022-08-07T01:24:34.660Z,61.08
2022-08-07T01:27:03.207Z,59.13
2022-08-07T01:29:33.977Z,58.66
2022-08-07T01:32:05.506Z,57.60
2022-08-07T01:34:47.293Z,57.35
2022-08-07T01:37:17.392Z,57.64
2022-08-07T01:39:48.289Z,58.01
2022-08-07T01:42:39.657Z,58.61
2022-08-07T01:45:17.909Z,58.38
2022-08-07T01:48:21.110Z,57.79
2022-08-07T01:50:40.339Z,59.04
2022-08-07T01:53:21.143Z,57.65
2022-08-07T01:56:01.285Z,58.52
2022-08-07T01:58:34.524Z,58.88
2022-08-07T02:01:25.443Z,58.79
2022-08-07T02:04:31.071Z,57.54
2022-08-07T02:07:02.980Z,56.87
2022-08-07T02:09:43.580Z,57.65
2022-08-07T02:12:22.125Z,58.26
2022-08-07T02:15:00.960Z,57.96
2022-08-07T02:17:36.116Z,57.80
2022-08-07T02:20:09.745Z,58.34
2022-08-07T02:22:45.663Z,59.46
2022-08-07T02:25:18.266Z,59.88
2022-08-07T02:27:56.742Z,59.79
2022-08-07T02:30:24.600Z,59.51
2022-08-07T02:33:07.496Z,60.83
2022-08-07T02:36:26.974Z,60.48
2022-08-07T02:38:33.512Z,60.36
2022-08-07T02:41:04.429Z,60.29
2022-08-07T02:43:38.899Z,60.25
2022-08-07T02:46:08.982Z,60.15
2022-08-07T02:48:38.034Z,59.32
2022-08-07T02:51:41.719Z,60.10
2022-08-07T02:54:08.309Z,59.27
2022-08-07T02:56:38.642Z,59.57
2022-08-07T02:59:10.322Z,60.27
2022-08-07T03:01:40.322Z,60.48
2022-08-07T03:04:14.401Z,60.22
2022-08-07T03:06:46.177Z,61.21
2022-08-07T03:09:42.141Z,60.99
2022-08-07T03:12:08.074Z,61.05
2022-08-07T03:14:48.546Z,59.87
2022-08-07T03:17:22.163Z,61.50
2022-08-07T03:19:55.468Z,61.06
2022-08-07T03:22:29.527Z,61.36
2022-08-07T03:25:00.150Z,61.10
2022-08-07T03:27:59.305Z,60.77
2022-08-07T03:30:18.186Z,60.03
2022-08-07T03:32:58.780Z,60.09
2022-08-07T03:35:43.960Z,59.87
2022-08-07T03:38:21.072Z,59.16
2022-08-07T03:40:51.334Z,59.91
2022-08-07T03:43:26.589Z,60.48
2022-08-07T03:46:00.775Z,60.05
2022-08-07T03:48:34.285Z,59.37
2022-08-07T03:51:14.134Z,59.71
2022-08-07T03:54:05.566Z,60.00
2022-08-07T03:56:33.627Z,60.66
2022-08-07T03:59:09.534Z,60.32
2022-08-07T04:01:45.350Z,59.56
2022-08-07T04:04:18.522Z,59.19
2022-08-07T04:06:51.811Z,58.84
2022-08-07T04:09:23.276Z,59.52
2022-08-07T04:12:23.653Z,59.42
2022-08-07T04:14:46.232Z,59.71
2022-08-07T04:17:20.962Z,59.81
2022-08-07T04:19:54.163Z,59.81
2022-08-07T04:22:28.835Z,61.24
2022-08-07T04:25:01.329Z,60.47
2022-08-07T04:27:35.429Z,59.59
2022-08-07T04:30:21.007Z,59.38
2022-08-07T04:32:57.929Z,60.37
2022-08-07T04:35:34.991Z,60.17
2022-08-07T04:38:11.439Z,59.66
2022-08-07T04:40:51.617Z,60.23
2022-08-07T04:44:12.475Z,59.84
2022-08-07T04:47:04.400Z,61.91
2022-08-07T04:49:47.499Z,62.89
2022-08-07T04:53:04.160Z,63.36
2022-08-07T04:58:14.031Z,63.22
2022-08-07T05:00:07.876Z,62.82
2022-08-07T05:01:53.693Z,62.75
2022-08-07T05:04:47.282Z,63.05
2022-08-07T05:07:36.681Z,61.84
2022-08-07T05:10:16.836Z,62.41
2022-08-07T05:14:54.549Z,60.79
2022-08-07T05:16:09.616Z,60.48
2022-08-07T05:18:41.068Z,60.91
2022-08-07T05:21:12.304Z,61.01
2022-08-07T05:23:47.729Z,60.35
2022-08-07T05:26:23.910Z,60.51
2022-08-07T05:28:59.668Z,60.19
2022-08-07T05:31:38.493Z,59.76
2022-08-07T05:34:15.896Z,59.75
2022-08-07T05:36:49.064Z,58.92
2022-08-07T05:40:14.032Z,59.36
2022-08-07T05:42:34.539Z,60.11
2022-08-07T05:45:14.475Z,60.22
2022-08-07T05:48:01.242Z,60.64
2022-08-07T05:50:32.057Z,60.74
2022-08-07T05:53:01.319Z,60.23
2022-08-07T05:56:03.099Z,60.41
2022-08-07T05:58:17.220Z,59.86
2022-08-07T06:01:05.868Z,60.35
2022-08-07T06:03:53.384Z,59.42
2022-08-07T06:06:29.546Z,58.46
2022-08-07T06:09:01.353Z,59.15
2022-08-07T06:11:34.860Z,58.23
2022-08-07T06:14:11.521Z,57.61
2022-08-07T06:16:49.958Z,56.94
2022-08-07T06:19:51.906Z,56.70
2022-08-07T06:22:16.438Z,55.38
2022-08-07T06:24:58.533Z,56.41
2022-08-07T06:27:44.010Z,56.53
2022-08-07T06:30:32.267Z,54.92
2022-08-07T06:33:04.568Z,54.40
2022-08-07T06:35:45.543Z,53.74
2022-08-07T06:38:20.775Z,54.25
2022-08-07T06:40:53.236Z,53.03
2022-08-07T06:43:23.798Z,52.82
2022-08-07T06:46:12.131Z,52.74
2022-08-07T06:48:42.180Z,54.52
2022-08-07T06:51:24.556Z,53.30
2022-08-07T06:55:29.986Z,52.49
2022-08-07T06:56:55.733Z,53.35
2022-08-07T07:00:14.490Z,53.38
2022-08-07T07:02:48.581Z,53.00
2022-08-07T07:05:13.954Z,53.74
2022-08-07T07:08:06.809Z,52.40
2022-08-07T07:10:35.432Z,50.99
2022-08-07T07:13:17.289Z,50.73
2022-08-07T07:16:21.763Z,50.76
2022-08-07T07:18:52.820Z,51.70
2022-08-07T07:21:27.169Z,50.61
2022-08-07T07:24:12.601Z,50.18
2022-08-07T07:26:51.896Z,50.36
2022-08-07T07:29:56.341Z,49.67
2022-08-07T07:32:12.845Z,48.49
2022-08-07T07:34:46.676Z,49.29
2022-08-07T07:37:45.174Z,48.30
2022-08-07T07:40:14.627Z,47.45
2022-08-07T07:42:47.025Z,48.02
2022-08-07T07:45:24.547Z,47.18
2022-08-07T07:48:11.006Z,47.07
2022-08-07T07:50:40.348Z,46.78
2022-08-07T07:53:20.568Z,47.30
2022-08-07T07:55:57.907Z,47.03
2022-08-07T07:58:36.959Z,47.00
2022-08-07T08:02:01.736Z,46.41
2022-08-07T08:04:11.974Z,46.23
2022-08-07T08:06:50.913Z,45.79
2022-08-07T08:09:29.164Z,44.50
2022-08-07T08:12:02.962Z,43.08
2022-08-07T08:14:36.464Z,43.49
2022-08-07T08:17:55.709Z,43.39
2022-08-07T08:20:17.627Z,41.92
2022-08-07T08:23:09.344Z,41.55
2022-08-07T08:25:58.142Z,41.69
2022-08-07T08:28:38.692Z,41.20
2022-08-07T08:31:15.774Z,41.35
2022-08-07T08:33:49.422Z,40.37
2022-08-07T08:36:29.922Z,39.59
2022-08-07T08:39:00.849Z,40.55
2022-08-07T08:41:57.919Z,39.41
2022-08-07T08:44:29.665Z,38.72
2022-08-07T08:47:29.839Z,38.96
2022-08-07T08:50:09.872Z,38.73
2022-08-07T08:52:54.215Z,38.82
2022-08-07T08:55:54.584Z,38.68
2022-08-07T08:58:29.134Z,39.40
2022-08-07T09:01:20.195Z,37.66
2022-08-07T09:04:11.031Z,38.59
2022-08-07T09:07:04.804Z,37.50
2022-08-07T09:09:56.686Z,36.46
2022-08-07T09:13:09.471Z,35.77
2022-08-07T09:16:24.060Z,36.60
2022-08-07T09:18:47.235Z,36.19
2022-08-07T09:22:10.354Z,35.88
2022-08-07T09:24:59.285Z,35.59
2022-08-07T09:27:59.563Z,35.20
2022-08-07T09:30:34.323Z,36.57
2022-08-07T09:33:05.639Z,36.21
2022-08-07T09:36:06.342Z,36.19
2022-08-07T09:38:54.408Z,35.36
2022-08-07T09:41:21.196Z,35.42
2022-08-07T09:44:19.387Z,35.31
2022-08-07T09:47:49.910Z,36.15
2022-08-07T09:50:18.908Z,35.45
2022-08-07T09:53:00.302Z,34.37
2022-08-07T09:56:04.630Z,33.96
2022-08-07T09:58:51.053Z,34.45
2022-08-07T10:01:53.758Z,34.79
2022-08-07T10:04:28.420Z,33.78
2022-08-07T10:07:24.311Z,34.32
2022-08-07T10:10:21.470Z,34.29
2022-08-07T10:14:00.110Z,32.34
2022-08-07T10:16:59.616Z,31.17
2022-08-07T10:19:37.662Z,30.52
2022-08-07T10:22:46.949Z,31.26
2022-08-07T10:25:52.962Z,32.33
2022-08-07T10:28:51.311Z,32.36
2022-08-07T10:31:39.078Z,32.27
2022-08-07T10:47:52.912Z,31.65
2022-08-07T10:50:52.257Z,30.53
2022-08-07T10:53:44.780Z,28.47
2022-08-07T10:56:46.652Z,29.01
2022-08-07T10:59:30.488Z,27.86
2022-08-07T11:02:34.355Z,28.18
2022-08-07T11:05:20.886Z,28.09
2022-08-07T11:08:20.151Z,29.06
2022-08-07T11:10:59.834Z,27.89
2022-08-07T11:14:45.254Z,27.67
2022-08-07T11:16:37.097Z,27.52
2022-08-07T11:19:21.773Z,28.43
2022-08-07T11:22:32.353Z,27.91
2022-08-07T11:25:26.135Z,28.91
2022-08-07T11:28:15.479Z,28.60
2022-08-07T11:31:17.689Z,28.31
2022-08-07T11:34:00.356Z,27.48
2022-08-07T11:48:13.889Z,24.31
2022-08-07T11:51:41.475Z,23.87
2022-08-07T11:54:32.175Z,27.40
2022-08-07T11:58:00.273Z,27.04
2022-08-07T12:00:18.693Z,29.29
2022-08-07T12:03:45.119Z,28.23
2022-08-07T12:06:36.366Z,28.98
2022-08-07T12:09:16.694Z,28.48
2022-08-07T12:12:10.395Z,29.24
2022-08-07T12:14:41.117Z,28.50
2022-08-07T12:17:30.322Z,28.65
2022-08-07T12:20:30.307Z,27.06
2022-08-07T12:23:14.274Z,24.65
2022-08-07T12:26:00.776Z,24.35
2022-08-07T12:29:01.797Z,22.67
2022-08-07T12:32:01.659Z,21.93
2022-08-07T12:34:36.886Z,21.45
2022-08-07T12:37:08.291Z,22.83
2022-08-07T12:39:50.560Z,21.67
2022-08-07T12:42:27.943Z,24.18
2022-08-07T12:44:58.753Z,23.87
2022-08-07T12:47:30.660Z,23.21
2022-08-07T12:50:38.395Z,22.41
2022-08-07T12:54:24.449Z,19.86
2022-08-07T12:56:44.149Z,17.99
2022-08-07T12:59:22.624Z,18.30
2022-08-07T13:02:33.299Z,19.42
2022-08-07T13:06:03.893Z,18.42
2022-08-07T13:08:42.075Z,17.81
2022-08-07T13:11:16.467Z,17.72
2022-08-07T13:14:29.123Z,16.04
2022-08-07T13:17:40.013Z,16.19
2022-08-07T13:20:21.700Z,16.98
2022-08-07T13:24:04.027Z,17.45
2022-08-07T13:26:41.786Z,17.08
2022-08-07T13:29:19.102Z,17.21
2022-08-07T13:31:57.905Z,16.97
2022-08-07T13:34:48.435Z,17.96
2022-08-07T13:37:58.673Z,17.71
2022-08-07T13:40:35.014Z,16.97
2022-08-07T13:43:15.408Z,17.73
2022-08-07T13:46:11.184Z,15.63
2022-08-07T13:48:43.928Z,16.72
2022-08-07T13:52:23.152Z,16.22
2022-08-07T13:54:23.628Z,14.94
2022-08-07T13:56:59.901Z,14.47
2022-08-07T13:59:33.403Z,15.20
2022-08-07T14:02:10.220Z,16.16
2022-08-07T14:05:12.030Z,15.24
2022-08-07T14:08:01.022Z,15.59
2022-08-07T14:10:42.397Z,15.47
2022-08-07T14:13:16.605Z,15.83
2022-08-07T14:15:53.479Z,16.01
2022-08-07T14:18:44.549Z,15.89
2022-08-07T14:22:01.395Z,16.40
2022-08-07T14:24:41.421Z,16.60
2022-08-07T14:28:09.249Z,16.64
2022-08-07T14:30:09.474Z,18.23
2022-08-07T14:33:04.713Z,17.79
2022-08-07T14:35:48.499Z,17.63
2022-08-07T14:50:19.902Z,20.94
2022-08-07T14:52:50.589Z,21.03
2022-08-07T14:55:35.828Z,21.91
2022-08-07T14:58:32.683Z,22.37
2022-08-07T15:01:21.532Z,22.65
2022-08-07T15:12:25.978Z,23.97
2022-08-07T15:20:23.541Z,23.78
2022-08-07T15:27:11.443Z,23.91
2022-08-07T15:33:58.538Z,23.16
2022-08-07T15:39:15.824Z,23.97
2022-08-07T15:42:43.603Z,24.46
2022-08-07T15:48:00.845Z,23.54
2022-08-07T15:50:37.647Z,24.05
2022-08-07T15:53:54.159Z,24.14
2022-08-07T15:56:29.481Z,24.67
2022-08-07T15:59:16.557Z,24.68
2022-08-07T16:06:09.813Z,25.29
2022-08-07T16:08:42.271Z,25.69
2022-08-07T16:11:40.086Z,26.31
2022-08-07T16:14:31.543Z,26.89
2022-08-07T16:17:15.037Z,26.71
2022-08-07T16:20:07.464Z,25.87
2022-08-07T16:23:05.361Z,26.50
2022-08-07T16:25:56.115Z,25.65
2022-08-07T16:29:18.337Z,25.39
2022-08-07T16:31:51.217Z,24.99
2022-08-07T16:34:27.739Z,25.85
2022-08-07T16:38:03.369Z,26.98
2022-08-07T16:40:36.965Z,26.02
2022-08-07T16:44:06.303Z,23.92
2022-08-07T16:47:05.642Z,26.62
2022-08-07T16:50:27.448Z,24.47
2022-08-07T16:52:41.632Z,26.14
2022-08-07T16:55:52.307Z,24.58
2022-08-07T16:58:54.358Z,25.93
2022-08-07T17:01:42.464Z,26.61
2022-08-07T17:04:57.914Z,27.09
2022-08-07T17:07:51.975Z,26.20
2022-08-07T17:10:32.790Z,27.54
2022-08-07T17:13:41.465Z,26.44
2022-08-07T17:16:25.458Z,26.20
2022-08-07T17:18:52.209Z,27.12
2022-08-07T17:21:23.634Z,27.05
2022-08-07T17:24:28.744Z,27.05
2022-08-07T17:26:58.515Z,28.05
2022-08-07T17:30:14.824Z,27.00
2022-08-07T17:32:35.299Z,29.11
2022-08-07T17:35:50.032Z,30.39
2022-08-07T17:38:32.167Z,30.86
2022-08-07T17:42:01.121Z,29.79
2022-08-07T17:44:14.006Z,30.39
2022-08-07T17:46:52.534Z,30.47
2022-08-07T17:49:58.543Z,31.56
2022-08-07T17:52:36.865Z,30.88
2022-08-07T17:56:00.849Z,30.84
2022-08-07T17:59:00.745Z,31.84
2022-08-07T18:01:44.470Z,31.76
2022-08-07T18:04:34.437Z,32.12
2022-08-07T18:07:45.999Z,32.38
2022-08-07T18:10:33.138Z,33.13
2022-08-07T18:13:09.965Z,33.11
2022-08-07T18:15:55.717Z,33.62
2022-08-07T18:18:46.421Z,33.26
2022-08-07T18:21:53.498Z,32.86
2022-08-07T18:24:33.064Z,33.24
2022-08-07T18:27:20.924Z,34.31
2022-08-07T18:30:30.729Z,34.80
2022-08-07T18:33:15.404Z,35.15
2022-08-07T18:36:32.829Z,35.26
2022-08-07T18:40:05.169Z,35.56
2022-08-07T18:42:12.969Z,36.07
2022-08-07T18:45:43.561Z,36.08
2022-08-07T18:50:03.428Z,37.93
2022-08-07T18:52:34.967Z,37.34
2022-08-07T18:54:31.306Z,37.19
2022-08-07T18:57:36.982Z,37.72
2022-08-07T19:00:32.425Z,38.42
2022-08-07T19:03:36.151Z,38.53
2022-08-07T19:06:33.864Z,39.63
2022-08-07T19:09:55.857Z,39.56
2022-08-07T19:12:19.386Z,38.40
2022-08-07T19:16:03.489Z,39.12
2022-08-07T19:18:11.435Z,39.74
2022-08-07T19:21:44.088Z,39.94
2022-08-07T19:28:56.430Z,40.46
2022-08-07T19:39:57.468Z,41.33
2022-08-07T19:44:21.724Z,41.88
2022-08-07T19:47:05.788Z,40.84
2022-08-07T20:10:54.369Z,43.43
2022-08-07T20:21:52.418Z,45.32
2022-08-07T20:24:38.893Z,44.76
2022-08-07T20:35:51.659Z,45.56
2022-08-07T20:38:22.600Z,45.41
2022-08-07T20:40:53.433Z,45.58
2022-08-07T20:43:25.829Z,45.83
2022-08-07T20:46:27.061Z,46.30
2022-08-07T20:49:00.730Z,45.97
2022-08-07T20:51:36.071Z,46.15
2022-08-07T20:54:09.430Z,46.47
2022-08-07T20:56:45.903Z,46.07
2022-08-07T21:00:04.499Z,45.74
2022-08-07T21:02:38.367Z,46.83
2022-08-07T21:05:19.144Z,47.55
2022-08-07T21:08:12.586Z,47.07
2022-08-07T21:10:42.193Z,48.06
2022-08-07T21:13:14.467Z,48.59
2022-08-07T21:15:58.326Z,47.28
2022-08-07T21:18:33.978Z,47.45
2022-08-07T21:21:01.716Z,48.19
2022-08-07T21:23:49.434Z,47.46
2022-08-07T21:26:36.678Z,48.63
2022-08-07T21:29:12.859Z,48.29
2022-08-07T21:32:47.703Z,47.54
2022-08-07T21:35:02.614Z,47.87
2022-08-07T21:37:58.580Z,48.10
2022-08-07T21:40:39.080Z,48.09
2022-08-07T21:43:11.029Z,48.34
2022-08-07T21:46:08.947Z,48.46
2022-08-07T21:48:56.472Z,48.18
2022-08-07T21:51:33.731Z,48.48
2022-08-07T21:54:24.431Z,49.42
2022-08-07T21:56:56.171Z,49.56
2022-08-07T22:00:22.050Z,49.94
2022-08-07T22:03:05.771Z,49.11
2022-08-07T22:05:45.964Z,49.75
2022-08-07T22:08:19.792Z,49.89
2022-08-07T22:10:53.504Z,49.23
2022-08-07T22:13:24.339Z,49.81
2022-08-07T22:16:38.948Z,48.80
2022-08-07T22:19:23.796Z,50.11
2022-08-07T22:22:20.939Z,49.93
2022-08-07T22:25:10.877Z,49.61
2022-08-07T22:28:07.548Z,50.26
2022-08-07T22:31:06.915Z,50.75
2022-08-07T22:33:56.474Z,53.04
2022-08-07T22:36:56.234Z,52.01
2022-08-07T22:39:53.409Z,50.23
2022-08-07T22:42:31.519Z,52.11
2022-08-07T22:45:11.097Z,51.37
2022-08-07T22:47:54.614Z,50.96
2022-08-07T22:50:45.490Z,51.62
2022-08-07T22:54:08.089Z,52.10
2022-08-07T22:56:34.517Z,51.66
2022-08-07T22:59:23.867Z,51.04
2022-08-07T23:02:00.450Z,50.75
2022-08-07T23:04:33.423Z,51.74
2022-08-07T23:07:41.956Z,51.16
2022-08-07T23:10:39.751Z,51.52
2022-08-07T23:13:48.590Z,51.17
2022-08-07T23:16:54.854Z,51.64
2022-08-07T23:20:06.167Z,51.89
2022-08-07T23:22:45.313Z,51.97
2022-08-07T23:25:45.633Z,52.12
2022-08-07T23:28:21.492Z,52.02
2022-08-07T23:32:49.336Z,52.00
2022-08-07T23:34:43.016Z,51.88
2022-08-07T23:37:31.951Z,51.57
2022-08-07T23:40:27.174Z,53.61
2022-08-07T23:43:22.031Z,53.06
2022-08-07T23:46:10.509Z,52.89
2022-08-07T23:48:58.709Z,52.76
2022-08-07T23:52:59.791Z,52.58
2022-08-07T23:54:36.177Z,52.39
2022-08-07T23:57:23.512Z,52.93
